Time;durP1;ratioP1;P1;durP2;ratioP2;P2;SDS_P1;SDS_P2;PMS_P1;PMS_P2;Temp;Humidity;BMP_temperature;BMP_pressure;BME280_temperature;BME280_humidity;BME280_pressure;Samples;Min_cycle;Max_cycle;Signal;HPM_P1;HPM_P2
2022/05/29 00:00:12;;;;;;;;;;;;;;;22.82;41.86;100460.59;2084202;28;989;-60
2022/05/29 00:01:12;;;;;;;;;;;;;;;22.81;41.28;100459.72;2075276;28;1320;-59
2022/05/29 00:02:13;;;;;;;;;;;;;;;22.82;42.20;100457.88;2075549;28;870;-59
2022/05/29 00:03:13;;;;;;;;;;;;;;;22.80;41.51;100460.69;2084043;28;812;-59
2022/05/29 00:04:13;;;;;;;;;;;;;;;22.79;42.23;100458.94;2084105;28;941;-60
2022/05/29 00:05:14;;;;;;;;;;;;;;;22.77;41.50;100456.28;2084202;28;745;-60
2022/05/29 00:06:14;;;;;;;;;;;;;;;22.76;42.31;100459.06;2084112;28;1942;-59
2022/05/29 00:07:16;;;;;;;;;;;;;;;22.76;42.12;100459.94;2084302;28;760;-60
2022/05/29 00:08:23;;;;;;;;;;;;;;;22.77;41.88;100458.13;2084271;28;851;-59
2022/05/29 00:09:31;;;;;;;;;;;;;;;22.76;41.95;100453.69;2084360;28;839;-59
2022/05/29 00:10:34;;;;;;;;;;;;;;;22.76;41.58;100459.06;2084240;28;815;-60
2022/05/29 00:11:34;;;;;;;;;;;;;;;22.74;42.18;100463.69;2084144;28;894;-59
2022/05/29 00:12:35;;;;;;;;;;;;;;;22.73;42.55;100456.53;2075412;28;1033;-59
2022/05/29 00:13:35;;;;;;;;;;;;;;;22.73;42.56;100459.22;2075250;28;1353;-60
2022/05/29 00:14:36;;;;;;;;;;;;;;;22.73;41.71;100464.63;2075348;28;772;-59
2022/05/29 00:15:36;;;;;;;;;;;;;;;22.71;42.39;100461.97;2084121;28;946;-60
2022/05/29 00:16:36;;;;;;;;;;;;;;;22.71;42.22;100466.53;2084104;28;863;-60
2022/05/29 00:17:36;;;;;;;;;;;;;;;22.71;42.51;100455.72;2083993;28;1262;-60
2022/05/29 00:18:38;;;;;;;;;;;;;;;22.71;42.00;100463.81;2084129;28;946;-60
2022/05/29 00:19:38;;;;;;;;;;;;;;;22.70;42.31;100460.22;2084100;28;768;-59
2022/05/29 00:20:39;;;;;;;;;;;;;;;22.69;42.60;100463.03;2084056;28;994;-60
2022/05/29 00:21:39;;;;;;;;;;;;;;;22.69;42.66;100460.31;2075240;28;1034;-59
2022/05/29 00:22:39;;;;;;;;;;;;;;;22.69;42.65;100465.72;2075324;28;784;-59
2022/05/29 00:23:40;;;;;;;;;;;;;;;22.69;42.35;100463.03;2084224;28;756;-59
2022/05/29 00:24:41;;;;;;;;;;;;;;;22.68;42.58;100458.56;2075216;28;847;-60
2022/05/29 00:25:44;;;;;;;;;;;;;;;22.67;42.06;100465.78;2075267;28;993;-59
2022/05/29 00:26:44;;;;;;;;;;;;;;;22.67;42.04;100462.22;2083992;28;1914;-60
2022/05/29 00:27:45;;;;;;;;;;;;;;;22.66;42.91;100461.38;2075183;28;1152;-59
2022/05/29 00:28:46;;;;;;;;;;;;;;;22.66;42.82;100464.06;2075212;28;824;-60
2022/05/29 00:29:46;;;;;;;;;;;;;;;22.65;42.83;100463.16;2075125;28;887;-59
2022/05/29 00:30:47;;;;;;;;;;;;;;;22.65;42.77;100456.91;2083431;28;803;-59
2022/05/29 00:31:47;;;;;;;;;;;;;;;22.64;42.42;100461.41;2084009;28;847;-59
2022/05/29 00:32:47;;;;;;;;;;;;;;;22.63;41.96;100465.06;2084058;28;804;-60
2022/05/29 00:33:47;;;;;;;;;;;;;;;22.63;42.35;100462.38;2083978;28;1034;-60
2022/05/29 00:34:48;;;;;;;;;;;;;;;22.62;42.44;100463.31;2083877;28;627;-60
2022/05/29 00:35:48;;;;;;;;;;;;;;;22.62;42.78;100457.91;2075155;28;847;-59
2022/05/29 00:36:48;;;;;;;;;;;;;;;22.62;42.41;100457.91;2075222;28;847;-59
2022/05/29 00:37:48;;;;;;;;;;;;;;;22.62;42.69;100459.75;2083817;28;1215;-59
2022/05/29 00:38:50;;;;;;;;;;;;;;;22.62;41.94;100467.84;2084099;28;844;-60
2022/05/29 00:39:50;;;;;;;;;;;;;;;22.60;42.83;100459.81;2083917;28;882;-59
2022/05/29 00:40:55;;;;;;;;;;;;;;;22.60;42.11;100459.81;2083981;28;862;-59
2022/05/29 00:41:55;;;;;;;;;;;;;;;22.59;42.48;100460.75;2084006;28;1017;-60
2022/05/29 00:42:55;;;;;;;;;;;;;;;22.59;42.91;100460.75;2083934;28;776;-60
2022/05/29 00:44:12;;;;;;;;;;;;;;;22.59;42.37;100458.06;2084029;28;836;-60
2022/05/29 00:45:18;;;;;;;;;;;;;;;22.60;42.24;100464.34;2083876;28;1238;-59
2022/05/29 00:46:18;;;;;;;;;;;;;;;22.59;42.25;100465.31;2083816;28;1973;-59
2022/05/29 00:47:20;;;;;;;;;;;;;;;22.57;42.85;100459.97;2074998;28;1305;-59
2022/05/29 00:48:20;;;;;;;;;;;;;;;22.58;42.67;100467.09;2075229;28;851;-59
2022/05/29 00:49:22;;;;;;;;;;;;;;;22.57;42.96;100464.50;2083896;28;776;-60
2022/05/29 00:50:23;;;;;;;;;;;;;;;22.57;42.50;100465.34;2083834;28;993;-60
2022/05/29 00:51:23;;;;;;;;;;;;;;;22.58;42.87;100463.53;2083837;28;918;-59
2022/05/29 00:52:24;;;;;;;;;;;;;;;22.57;42.21;100461.78;2083938;28;776;-60
2022/05/29 00:53:25;;;;;;;;;;;;;;;22.57;42.10;100464.50;2083870;28;804;-60
2022/05/29 00:54:26;;;;;;;;;;;;;;;22.55;42.40;100461.84;2083833;28;832;-59
2022/05/29 00:55:29;;;;;;;;;;;;;;;22.55;42.12;100464.56;2074911;28;812;-59
2022/05/29 00:56:29;;;;;;;;;;;;;;;22.55;42.47;100464.56;2075399;28;792;-59
2022/05/29 00:57:30;;;;;;;;;;;;;;;22.55;42.97;100466.41;2083843;28;776;-60
2022/05/29 00:58:31;;;;;;;;;;;;;;;22.55;42.96;100469.09;2083826;28;664;-60
2022/05/29 00:59:32;;;;;;;;;;;;;;;22.53;42.23;100474.53;2084028;28;802;-60
2022/05/29 01:00:33;;;;;;;;;;;;;;;22.53;42.21;100471.00;2083763;28;816;-60
2022/05/29 01:01:33;;;;;;;;;;;;;;;22.54;42.09;100470.91;2083781;28;836;-59
2022/05/29 01:02:33;;;;;;;;;;;;;;;22.53;42.87;100479.09;2083809;28;914;-59
2022/05/29 01:03:34;;;;;;;;;;;;;;;22.52;42.18;100466.53;2083736;28;763;-60
2022/05/29 01:04:35;;;;;;;;;;;;;;;22.52;42.98;100477.34;2083821;28;990;-59
2022/05/29 01:05:36;;;;;;;;;;;;;;;22.51;42.91;100476.44;2083788;28;874;-59
2022/05/29 01:06:36;;;;;;;;;;;;;;;22.51;42.20;100479.13;2083680;28;1894;-60
2022/05/29 01:07:36;;;;;;;;;;;;;;;22.50;42.94;100480.97;2083711;28;1053;-60
2022/05/29 01:08:37;;;;;;;;;;;;;;;22.50;42.32;100475.59;2083676;28;907;-59
2022/05/29 01:09:39;;;;;;;;;;;;;;;22.50;42.86;100472.00;2083704;28;855;-59
2022/05/29 01:10:48;;;;;;;;;;;;;;;22.50;42.28;100474.69;2083723;28;828;-60
2022/05/29 01:11:55;;;;;;;;;;;;;;;22.50;42.58;100474.69;2083664;28;1045;-59
2022/05/29 01:13:09;;;;;;;;;;;;;;;22.49;42.72;100483.72;2083740;28;989;-59
2022/05/29 01:14:20;;;;;;;;;;;;;;;22.48;42.87;100481.97;2083712;28;878;-59
2022/05/29 01:15:29;;;;;;;;;;;;;;;22.48;43.09;100479.28;2083707;28;894;-59
2022/05/29 01:16:45;;;;;;;;;;;;;;;22.48;42.76;100479.28;2083715;28;788;-60
2022/05/29 01:17:45;;;;;;;;;;;;;;;22.47;43.06;100489.22;2083575;28;1178;-59
2022/05/29 01:19:00;;;;;;;;;;;;;;;22.47;42.96;100483.81;2083623;28;779;-59
2022/05/29 01:20:12;;;;;;;;;;;;;;;22.47;42.41;100485.63;2083716;28;807;-59
2022/05/29 01:21:31;;;;;;;;;;;;;;;22.46;42.78;100486.56;2083748;28;745;-60
2022/05/29 01:22:50;;;;;;;;;;;;;;;22.46;43.00;100484.78;2083596;28;843;-59
2022/05/29 01:24:09;;;;;;;;;;;;;;;22.46;42.45;100484.78;2083630;28;997;-59
2022/05/29 01:25:09;;;;;;;;;;;;;;;22.47;42.35;100486.53;2083627;28;776;-59
2022/05/29 01:26:23;;;;;;;;;;;;;;;22.46;42.14;100483.88;2083579;28;760;-59
2022/05/29 01:27:24;;;;;;;;;;;;;;;22.45;42.35;100482.13;2083650;28;792;-59
2022/05/29 01:28:44;;;;;;;;;;;;;;;22.44;43.05;100478.56;2083540;28;842;-59
2022/05/29 01:30:01;;;;;;;;;;;;;;;22.45;42.33;100482.13;2083032;28;1407;-59
2022/05/29 01:31:20;;;;;;;;;;;;;;;22.43;43.18;100479.47;2083584;28;803;-60
2022/05/29 01:32:39;;;;;;;;;;;;;;;22.43;42.46;100484.88;2083597;28;800;-59
2022/05/29 01:33:57;;;;;;;;;;;;;;;22.44;43.17;100485.78;2083685;28;910;-59
2022/05/29 01:35:03;;;;;;;;;;;;;;;22.43;42.10;100479.47;2083511;28;949;-59
2022/05/29 01:36:08;;;;;;;;;;;;;;;22.43;42.53;100484.88;2083583;28;859;-59
2022/05/29 01:37:11;;;;;;;;;;;;;;;22.43;42.53;100484.00;2083605;28;899;-59
2022/05/29 01:38:15;;;;;;;;;;;;;;;22.42;42.36;100485.81;2083446;28;910;-60
2022/05/29 01:39:21;;;;;;;;;;;;;;;22.43;42.21;100486.69;2083495;28;780;-60
2022/05/29 01:40:41;;;;;;;;;;;;;;;22.43;43.00;100484.00;2083509;28;867;-59
2022/05/29 01:41:53;;;;;;;;;;;;;;;22.42;43.18;100484.94;2082878;28;1127;-60
2022/05/29 01:42:57;;;;;;;;;;;;;;;22.43;42.61;100492.09;2083472;28;780;-59
2022/05/29 01:44:08;;;;;;;;;;;;;;;22.41;42.96;100481.38;2083425;28;1041;-59
2022/05/29 01:45:15;;;;;;;;;;;;;;;22.41;42.93;100478.69;2083503;28;819;-59
2022/05/29 01:46:18;;;;;;;;;;;;;;;22.42;43.02;100479.53;2083431;28;1889;-59
2022/05/29 01:47:23;;;;;;;;;;;;;;;22.41;42.21;100486.78;2083394;28;807;-60
2022/05/29 01:48:32;;;;;;;;;;;;;;;22.41;42.76;100486.78;2083404;28;840;-59
2022/05/29 01:49:40;;;;;;;;;;;;;;;22.40;42.93;100484.13;2083439;28;1005;-59
2022/05/29 01:50:43;;;;;;;;;;;;;;;22.40;42.30;100476.91;2083425;28;1165;-60
2022/05/29 01:51:49;;;;;;;;;;;;;;;22.40;42.29;100481.44;2083382;28;993;-60
2022/05/29 01:52:53;;;;;;;;;;;;;;;22.39;43.10;100483.28;2083385;28;757;-60
2022/05/29 01:53:59;;;;;;;;;;;;;;;22.39;42.32;100488.66;2083481;28;796;-60
2022/05/29 01:55:00;;;;;;;;;;;;;;;22.39;43.21;100485.97;2083374;28;851;-60
2022/05/29 01:56:07;;;;;;;;;;;;;;;22.39;43.12;100487.78;2083322;28;1021;-60
2022/05/29 01:57:27;;;;;;;;;;;;;;;22.40;42.97;100484.13;2074496;28;1309;-59
2022/05/29 01:58:32;;;;;;;;;;;;;;;22.39;42.46;100485.06;2076967;28;1210;-60
2022/05/29 01:59:42;;;;;;;;;;;;;;;22.39;42.84;100482.38;2083465;28;788;-59
2022/05/29 02:00:44;;;;;;;;;;;;;;;22.39;43.09;100493.16;2083246;28;1029;-59
2022/05/29 02:01:47;;;;;;;;;;;;;;;22.39;42.57;100493.16;2083299;28;977;-59
2022/05/29 02:02:51;;;;;;;;;;;;;;;22.38;42.35;100488.72;2083314;28;1013;-60
2022/05/29 02:03:53;;;;;;;;;;;;;;;22.38;42.60;100492.31;2083329;28;894;-60
2022/05/29 02:04:56;;;;;;;;;;;;;;;22.38;42.35;100495.00;2083227;28;676;-60
2022/05/29 02:05:59;;;;;;;;;;;;;;;22.36;43.14;100497.78;2083254;28;1017;-59
2022/05/29 02:08:24;;;;;;;;;;;;;;;22.36;42.36;100489.69;2083319;28;701;-59
2022/05/29 02:09:29;;;;;;;;;;;;;;;22.36;43.14;100487.00;2083392;28;744;-59
2022/05/29 02:10:38;;;;;;;;;;;;;;;22.37;42.40;100490.56;2083260;28;1064;-60
2022/05/29 02:11:39;;;;;;;;;;;;;;;22.36;42.44;100484.31;2083293;28;832;-59
2022/05/29 02:12:43;;;;;;;;;;;;;;;22.35;42.34;100485.25;2082778;28;790;-60
2022/05/29 02:13:49;;;;;;;;;;;;;;;22.37;43.12;100493.25;2074352;28;1464;-59
2022/05/29 02:14:53;;;;;;;;;;;;;;;22.35;42.56;100487.94;2075239;28;914;-59
2022/05/29 02:16:11;;;;;;;;;;;;;;;22.34;42.37;100486.19;2083183;28;823;-59
2022/05/29 02:17:15;;;;;;;;;;;;;;;22.35;42.19;100489.75;2083043;28;1166;-59
2022/05/29 02:18:20;;;;;;;;;;;;;;;22.35;42.21;100489.75;2083183;28;894;-59
2022/05/29 02:19:28;;;;;;;;;;;;;;;22.34;43.07;100491.59;2083320;28;875;-59
2022/05/29 02:20:38;;;;;;;;;;;;;;;22.35;42.74;100490.66;2083197;28;700;-60
2022/05/29 02:21:41;;;;;;;;;;;;;;;22.34;43.08;100486.19;2083124;28;993;-60
2022/05/29 02:22:44;;;;;;;;;;;;;;;22.33;42.63;100489.84;2083094;28;915;-59
2022/05/29 02:23:49;;;;;;;;;;;;;;;22.33;42.37;100488.94;2083116;28;915;-59
2022/05/29 02:24:52;;;;;;;;;;;;;;;22.33;42.95;100491.66;2083189;28;946;-60
2022/05/29 02:25:54;;;;;;;;;;;;;;;22.33;42.32;100492.53;2083221;28;771;-60
2022/05/29 02:26:57;;;;;;;;;;;;;;;22.34;42.58;100490.69;2083039;28;1910;-59
2022/05/29 02:28:03;;;;;;;;;;;;;;;22.33;42.27;100489.84;2083068;28;994;-59
2022/05/29 02:29:06;;;;;;;;;;;;;;;22.32;42.22;100490.78;2083059;28;1009;-60
2022/05/29 02:30:06;;;;;;;;;;;;;;;22.33;43.17;100494.34;2083082;28;1076;-59
2022/05/29 02:31:07;;;;;;;;;;;;;;;22.33;42.53;100502.44;2082985;28;982;-59
2022/05/29 02:32:19;;;;;;;;;;;;;;;22.32;42.60;100493.47;2083066;28;1021;-59
2022/05/29 02:33:25;;;;;;;;;;;;;;;22.33;42.92;100506.03;2083256;28;717;-59
2022/05/29 02:34:31;;;;;;;;;;;;;;;22.32;42.51;100504.28;2083030;28;994;-60
2022/05/29 02:35:45;;;;;;;;;;;;;;;22.33;42.86;100497.03;2083121;28;1002;-60
2022/05/29 02:37:03;;;;;;;;;;;;;;;22.31;42.17;100499.81;2083090;28;871;-60
2022/05/29 02:38:12;;;;;;;;;;;;;;;22.32;42.92;100498.00;2083059;28;993;-60
2022/05/29 02:39:20;;;;;;;;;;;;;;;22.31;42.98;100499.81;2083156;28;1013;-60
2022/05/29 02:40:44;;;;;;;;;;;;;;;22.31;43.01;100501.63;2083064;28;784;-60
2022/05/29 02:41:59;;;;;;;;;;;;;;;22.31;42.25;100496.25;2074808;28;1069;-60
2022/05/29 02:43:05;;;;;;;;;;;;;;;22.30;42.55;100494.47;2083049;28;1013;-60
2022/05/29 02:44:11;;;;;;;;;;;;;;;22.29;42.53;100499.03;2082990;28;851;-59
2022/05/29 02:45:26;;;;;;;;;;;;;;;22.29;42.18;100496.31;2083003;28;1002;-59
2022/05/29 02:46:44;;;;;;;;;;;;;;;22.30;42.31;100498.06;2074107;28;1898;-60
2022/05/29 02:47:54;;;;;;;;;;;;;;;22.30;42.72;100499.88;2076736;28;1072;-59
2022/05/29 02:49:13;;;;;;;;;;;;;;;22.28;42.97;100497.28;2082999;28;1055;-59
2022/05/29 02:50:31;;;;;;;;;;;;;;;22.28;42.50;100494.56;2083192;28;725;-60
2022/05/29 02:51:36;;;;;;;;;;;;;;;22.29;42.53;100504.41;2083016;28;986;-60
2022/05/29 02:52:36;;;;;;;;;;;;;;;22.28;42.48;100505.38;2082962;28;890;-60
2022/05/29 02:53:41;;;;;;;;;;;;;;;22.28;42.60;100499.97;2082978;28;935;-59
2022/05/29 02:54:41;;;;;;;;;;;;;;;22.28;43.08;100504.47;2082950;28;863;-60
2022/05/29 02:55:43;;;;;;;;;;;;;;;22.27;42.34;100503.63;2082907;28;997;-60
2022/05/29 02:56:43;;;;;;;;;;;;;;;22.28;42.69;100502.66;2082952;28;823;-59
2022/05/29 02:57:43;;;;;;;;;;;;;;;22.28;42.26;100508.06;2082921;28;1044;-60
2022/05/29 02:58:45;;;;;;;;;;;;;;;22.27;42.53;100503.63;2082931;28;1041;-60
2022/05/29 02:59:49;;;;;;;;;;;;;;;22.28;42.47;100516.16;2082925;28;792;-60
2022/05/29 03:01:08;;;;;;;;;;;;;;;22.27;43.12;100506.31;2082918;28;796;-60
2022/05/29 03:02:26;;;;;;;;;;;;;;;22.27;42.24;100513.50;2082971;28;989;-59
2022/05/29 03:03:30;;;;;;;;;;;;;;;22.27;42.67;100514.41;2082955;28;898;-59
2022/05/29 03:04:40;;;;;;;;;;;;;;;22.27;42.31;100516.22;2082910;28;826;-60
2022/05/29 03:05:59;;;;;;;;;;;;;;;22.27;42.47;100513.50;2082892;28;831;-59
2022/05/29 03:07:14;;;;;;;;;;;;;;;22.26;43.04;100512.66;2082908;28;1898;-59
2022/05/29 03:08:34;;;;;;;;;;;;;;;22.26;42.12;100515.34;2082906;28;1068;-60
2022/05/29 03:09:41;;;;;;;;;;;;;;;22.26;42.17;100519.84;2082360;28;1348;-60
2022/05/29 03:10:46;;;;;;;;;;;;;;;22.26;42.82;100518.03;2082833;28;838;-60
2022/05/29 03:11:47;;;;;;;;;;;;;;;22.25;42.58;100513.59;2082915;28;1057;-59
2022/05/29 03:13:16;;;;;;;;;;;;;;;22.26;42.49;100515.34;2082915;28;966;-59
2022/05/29 03:14:25;;;;;;;;;;;;;;;22.25;42.15;100521.69;2057447;28;1256;-60
2022/05/29 03:15:25;;;;;;;;;;;;;;;22.25;42.99;100521.69;2057583;28;1076;-60
2022/05/29 03:16:32;;;;;;;;;;;;;;;22.25;42.43;100524.38;2057565;28;851;-59
2022/05/29 03:17:45;;;;;;;;;;;;;;;22.24;43.02;100522.63;2057230;28;1096;-60
2022/05/29 03:19:10;;;;;;;;;;;;;;;22.25;42.78;100524.38;2057187;28;1124;-59
2022/05/29 03:20:29;;;;;;;;;;;;;;;22.24;42.25;100522.63;2057118;28;1165;-60
2022/05/29 03:21:49;;;;;;;;;;;;;;;22.25;42.78;100528.91;2057261;28;772;-60
2022/05/29 03:22:55;;;;;;;;;;;;;;;22.24;42.01;100528.03;2056783;28;1068;-59
2022/05/29 03:24:16;;;;;;;;;;;;;;;22.24;42.64;100521.75;2057241;28;958;-59
2022/05/29 03:25:16;;;;;;;;;;;;;;;22.24;42.65;100530.72;2058590;28;947;-59
2022/05/29 03:26:40;;;;;;;;;;;;;;;22.24;42.86;100528.03;2058649;28;1972;-59
2022/05/29 03:27:43;;;;;;;;;;;;;;;22.24;42.09;100527.13;2058665;28;978;-60
2022/05/29 03:28:56;;;;;;;;;;;;;;;22.24;42.73;100529.84;2050572;29;1049;-60
2022/05/29 03:30:15;;;;;;;;;;;;;;;22.23;42.53;100523.59;2052139;28;1200;-60
2022/05/29 03:31:18;;;;;;;;;;;;;;;22.23;42.01;100530.78;2058642;28;785;-60
2022/05/29 03:32:19;;;;;;;;;;;;;;;22.22;42.99;100529.91;2058520;28;1053;-59
2022/05/29 03:33:20;;;;;;;;;;;;;;;22.21;42.60;100522.78;2058553;28;791;-59
2022/05/29 03:34:21;;;;;;;;;;;;;;;22.23;42.98;100533.47;2058624;28;734;-59
2022/05/29 03:35:23;;;;;;;;;;;;;;;22.23;42.86;100537.06;2058447;28;1214;-59
2022/05/29 03:36:25;;;;;;;;;;;;;;;22.23;42.44;100536.19;2058571;28;1006;-59
2022/05/29 03:37:26;;;;;;;;;;;;;;;22.21;42.95;100523.63;2058547;28;899;-59
2022/05/29 03:38:26;;;;;;;;;;;;;;;22.21;42.80;100529.03;2058545;28;1168;-59
2022/05/29 03:39:26;;;;;;;;;;;;;;;22.21;42.39;100533.56;2058544;28;852;-60
2022/05/29 03:40:27;;;;;;;;;;;;;;;22.22;42.59;100535.31;2058536;28;845;-59
2022/05/29 03:41:32;;;;;;;;;;;;;;;22.19;42.31;100530.91;2058527;28;982;-59
2022/05/29 03:42:32;;;;;;;;;;;;;;;22.21;42.02;100533.56;2050496;29;1331;-59
2022/05/29 03:43:33;;;;;;;;;;;;;;;22.20;42.31;100527.28;2050543;29;820;-60
2022/05/29 03:44:33;;;;;;;;;;;;;;;22.19;42.80;100530.91;2058454;28;1500;-60
2022/05/29 03:45:33;;;;;;;;;;;;;;;22.21;42.74;100541.66;2058533;28;741;-59
2022/05/29 03:46:33;;;;;;;;;;;;;;;22.19;42.10;100535.44;2058343;28;1891;-60
2022/05/29 03:47:34;;;;;;;;;;;;;;;22.20;42.36;100531.81;2058515;28;803;-59
2022/05/29 03:48:35;;;;;;;;;;;;;;;22.20;42.83;100534.50;2058469;28;868;-60
2022/05/29 03:49:35;;;;;;;;;;;;;;;22.19;42.74;100538.16;2058487;28;868;-59
2022/05/29 03:50:35;;;;;;;;;;;;;;;22.19;42.14;100539.00;2058534;28;785;-60
2022/05/29 03:51:36;;;;;;;;;;;;;;;22.19;42.83;100541.72;2075808;28;1034;-60
2022/05/29 03:52:36;;;;;;;;;;;;;;;22.19;42.08;100546.25;2083768;28;1033;-60
2022/05/29 03:53:36;;;;;;;;;;;;;;;22.18;42.08;100541.78;2083729;28;990;-60
2022/05/29 03:54:37;;;;;;;;;;;;;;;22.18;41.78;100542.66;2083761;28;990;-59
2022/05/29 03:55:37;;;;;;;;;;;;;;;22.19;42.81;100541.72;2083827;28;772;-59
2022/05/29 03:56:38;;;;;;;;;;;;;;;22.19;42.05;100540.84;2083757;28;982;-59
2022/05/29 03:57:38;;;;;;;;;;;;;;;22.18;42.08;100544.50;2083769;28;700;-60
2022/05/29 03:58:38;;;;;;;;;;;;;;;22.19;42.28;100547.09;2083734;28;756;-59
2022/05/29 03:59:38;;;;;;;;;;;;;;;22.18;42.92;100544.50;2083718;28;866;-60
2022/05/29 04:00:38;;;;;;;;;;;;;;;22.19;42.74;100551.63;2083731;28;749;-59
2022/05/29 04:01:38;;;;;;;;;;;;;;;22.34;42.56;100550.06;2083671;28;744;-59
2022/05/29 04:02:40;;;;;;;;;;;;;;;23.50;39.95;100547.31;2083763;28;949;-59
2022/05/29 04:03:40;;;;;;;;;;;;;;;24.28;38.00;100549.63;2083743;28;791;-59
2022/05/29 04:04:40;;;;;;;;;;;;;;;24.84;36.56;100543.91;2083700;28;820;-60
2022/05/29 04:05:40;;;;;;;;;;;;;;;25.28;35.80;100545.06;2083718;28;1021;-59
2022/05/29 04:06:40;;;;;;;;;;;;;;;25.59;34.87;100540.56;2083636;28;1965;-60
2022/05/29 04:13:03;;;;;;;;;;;;;;;27.02;31.89;100548.09;2058612;28;638;-60
2022/05/29 04:14:04;;;;;;;;;;;;;;;27.14;31.48;100546.41;2058316;28;1117;-60
2022/05/29 04:15:04;;;;;;;;;;;;;;;27.36;31.07;100545.84;2058305;28;990;-60
2022/05/29 04:16:04;;;;;;;;;;;;;;;27.51;30.80;100546.66;2058343;28;864;-60
2022/05/29 04:17:05;;;;;;;;;;;;;;;27.70;30.99;100552.69;2021034;28;1080755;-59
2022/05/29 04:18:05;;;;;;;;;;;;;;;27.96;30.17;100549.06;2058919;28;843;-60
2022/05/29 04:19:05;;;;;;;;;;;;;;;27.95;30.65;100552.75;2058748;28;971;-60
2022/05/29 04:20:06;;;;;;;;;;;;;;;27.91;30.56;100553.97;2058772;28;836;-60
2022/05/29 04:21:06;;;;;;;;;;;;;;;28.13;29.96;100551.63;2058780;28;859;-60
2022/05/29 04:22:07;;;;;;;;;;;;;;;28.37;29.91;100552.59;2058717;28;780;-60
2022/05/29 04:23:08;;;;;;;;;;;;;;;28.66;29.05;100554.22;2058785;28;809;-60
2022/05/29 04:24:08;;;;;;;;;;;;;;;28.64;29.02;100553.44;2058686;28;1172;-60
2022/05/29 04:25:08;;;;;;;;;;;;;;;28.82;28.80;100548.53;2058758;28;784;-60
2022/05/29 04:26:11;;;;;;;;;;;;;;;29.03;28.56;100543.34;2058680;28;1226;-60
2022/05/29 04:27:13;;;;;;;;;;;;;;;28.94;28.65;100544.91;2058661;28;1918;-60
2022/05/29 04:28:13;;;;;;;;;;;;;;;28.85;28.70;100543.72;2058763;28;836;-60
2022/05/29 04:29:14;;;;;;;;;;;;;;;29.26;28.11;100546.22;2058689;28;958;-60
2022/05/29 04:30:14;;;;;;;;;;;;;;;29.16;28.61;100545.16;2058630;28;1288;-60
2022/05/29 04:31:14;;;;;;;;;;;;;;;29.26;28.29;100552.53;2058702;28;844;-60
2022/05/29 04:33:33;;;;;;;;;;;;;;;29.63;27.79;100540.72;2058803;28;710;-60
2022/05/29 04:34:35;;;;;;;;;;;;;;;29.88;27.45;100547.88;2058715;28;756;-60
2022/05/29 04:35:37;;;;;;;;;;;;;;;29.99;26.88;100543.47;2058285;28;891;-60
2022/05/29 04:36:37;;;;;;;;;;;;;;;29.94;27.14;100548.38;2058588;28;1021;-61
2022/05/29 04:37:37;;;;;;;;;;;;;;;29.96;26.91;100547.28;2058605;28;1252;-60
2022/05/29 04:38:37;;;;;;;;;;;;;;;30.00;27.56;100546.09;2058701;28;788;-60
2022/05/29 04:39:37;;;;;;;;;;;;;;;30.05;26.86;100542.97;2058633;28;860;-60
2022/05/29 04:40:38;;;;;;;;;;;;;;;30.13;26.99;100545.97;2050509;28;975;-60
2022/05/29 04:41:38;;;;;;;;;;;;;;;30.11;26.72;100544.34;2050651;28;955;-60
2022/05/29 04:42:39;;;;;;;;;;;;;;;30.11;27.06;100547.06;2058614;28;1050;-60
2022/05/29 04:43:39;;;;;;;;;;;;;;;30.02;26.75;100554.16;2058613;28;829;-60
2022/05/29 04:44:39;;;;;;;;;;;;;;;30.02;27.10;100548.69;2058619;28;915;-60
2022/05/29 04:45:40;;;;;;;;;;;;;;;30.01;27.22;100547.81;2058576;28;979;-60
2022/05/29 04:46:40;;;;;;;;;;;;;;;30.30;26.75;100544.63;2058374;28;1952;-60
2022/05/29 04:47:40;;;;;;;;;;;;;;;30.47;26.66;100542.41;2058605;28;859;-60
2022/05/29 04:48:41;;;;;;;;;;;;;;;30.58;26.79;100542.44;2058589;28;915;-60
2022/05/29 04:49:41;;;;;;;;;;;;;;;30.66;26.69;100546.41;2077562;28;908;-60
2022/05/29 04:50:42;;;;;;;;;;;;;;;30.86;26.48;100548.38;2083924;28;824;-60
2022/05/29 04:51:42;;;;;;;;;;;;;;;30.95;26.36;100544.00;2083831;28;847;-60
2022/05/29 04:52:42;;;;;;;;;;;;;;;31.01;26.25;100548.13;2083852;28;1041;-60
2022/05/29 04:53:42;;;;;;;;;;;;;;;31.07;26.11;100544.88;2083778;28;871;-60
2022/05/29 04:54:42;;;;;;;;;;;;;;;31.09;26.34;100547.47;2074980;28;930;-60
2022/05/29 04:55:42;;;;;;;;;;;;;;;31.20;26.10;100547.47;2075049;28;772;-60
2022/05/29 04:56:45;;;;;;;;;;;;;;;31.24;25.91;100551.69;2083701;28;795;-59
2022/05/29 04:57:45;;;;;;;;;;;;;;;31.20;25.75;100547.47;2083793;28;984;-60
2022/05/29 04:58:45;;;;;;;;;;;;;;;31.29;25.64;100554.03;2083783;28;802;-60
2022/05/29 04:59:46;;;;;;;;;;;;;;;31.34;25.32;100546.31;2083811;28;859;-60
2022/05/29 05:00:46;;;;;;;;;;;;;;;31.39;25.44;100548.66;2083782;28;791;-60
2022/05/29 05:01:46;;;;;;;;;;;;;;;31.45;25.27;100546.28;2083759;28;890;-60
2022/05/29 05:02:46;;;;;;;;;;;;;;;31.58;25.25;100542.50;2083733;28;986;-60
2022/05/29 05:03:47;;;;;;;;;;;;;;;31.65;25.12;100552.78;2083798;28;863;-60
2022/05/29 05:04:47;;;;;;;;;;;;;;;31.54;25.20;100549.22;2083838;28;806;-60
2022/05/29 05:05:47;;;;;;;;;;;;;;;31.52;25.33;100556.69;2083732;28;772;-60
2022/05/29 05:06:47;;;;;;;;;;;;;;;31.60;24.82;100551.44;2074840;28;1953;-60
2022/05/29 05:07:47;;;;;;;;;;;;;;;31.72;24.97;100550.41;2074957;28;990;-60
2022/05/29 05:08:48;;;;;;;;;;;;;;;31.72;24.90;100552.25;2083688;28;986;-60
2022/05/29 05:09:48;;;;;;;;;;;;;;;31.70;24.84;100551.50;2083745;28;1005;-60
2022/05/29 05:10:48;;;;;;;;;;;;;;;31.62;24.88;100544.81;2083681;28;1037;-60
2022/05/29 05:11:50;;;;;;;;;;;;;;;31.75;24.94;100554.75;2083684;28;986;-60
2022/05/29 05:12:50;;;;;;;;;;;;;;;31.78;24.71;100557.22;2083718;28;855;-59
2022/05/29 05:13:50;;;;;;;;;;;;;;;31.80;24.61;100552.50;2074855;28;1608;-60
2022/05/29 05:14:51;;;;;;;;;;;;;;;31.82;24.33;100555.97;2074920;28;783;-60
2022/05/29 05:15:58;;;;;;;;;;;;;;;31.93;24.02;100560.50;2083587;28;1005;-60
2022/05/29 05:16:58;;;;;;;;;;;;;;;31.85;24.36;100560.31;2083542;28;1257;-60
2022/05/29 05:17:58;;;;;;;;;;;;;;;31.92;24.60;100558.78;2083654;28;648;-60
2022/05/29 05:18:58;;;;;;;;;;;;;;;32.01;24.40;100557.13;2083631;28;831;-60
2022/05/29 05:19:58;;;;;;;;;;;;;;;32.02;24.30;100559.72;2083750;28;872;-60
2022/05/29 05:20:59;;;;;;;;;;;;;;;31.92;24.33;100562.41;2083742;28;962;-60
2022/05/29 05:22:00;;;;;;;;;;;;;;;31.94;24.59;100574.09;2083641;28;1052;-60
2022/05/29 05:23:01;;;;;;;;;;;;;;;31.85;24.26;100569.41;2083625;28;791;-60
2022/05/29 05:24:03;;;;;;;;;;;;;;;31.96;24.15;100565.72;2083585;28;855;-60
2022/05/29 05:25:03;;;;;;;;;;;;;;;32.16;23.86;100568.59;2083658;28;1215;-60
2022/05/29 05:26:10;;;;;;;;;;;;;;;32.12;24.01;100572.59;2074742;28;1363;-60
2022/05/29 05:27:10;;;;;;;;;;;;;;;32.13;24.02;100571.59;2075621;28;1985;-60
2022/05/29 05:28:11;;;;;;;;;;;;;;;32.21;24.07;100567.19;2083540;28;997;-60
2022/05/29 05:29:11;;;;;;;;;;;;;;;32.19;23.82;100573.81;2083549;28;998;-60
2022/05/29 05:30:12;;;;;;;;;;;;;;;32.15;23.65;100566.88;2083578;28;858;-60
2022/05/29 05:31:12;;;;;;;;;;;;;;;32.22;23.81;100576.28;2083543;28;827;-60
2022/05/29 05:32:13;;;;;;;;;;;;;;;32.06;23.88;100574.88;2083548;28;871;-60
2022/05/29 05:33:13;;;;;;;;;;;;;;;32.00;24.16;100571.81;2083493;28;807;-60
2022/05/29 05:34:14;;;;;;;;;;;;;;;32.04;23.82;100565.94;2083536;28;870;-60
2022/05/29 05:35:14;;;;;;;;;;;;;;;32.07;23.81;100575.75;2083512;28;844;-60
2022/05/29 05:36:15;;;;;;;;;;;;;;;32.15;23.83;100570.44;2083573;28;708;-60
2022/05/29 05:37:16;;;;;;;;;;;;;;;32.18;23.77;100570.19;2083571;28;878;-59
2022/05/29 05:38:16;;;;;;;;;;;;;;;32.12;23.87;100578.94;2083441;28;882;-60
2022/05/29 05:39:16;;;;;;;;;;;;;;;32.16;23.49;100579.56;2074622;28;1148;-60
2022/05/29 05:40:16;;;;;;;;;;;;;;;32.30;23.70;100586.59;2074689;28;792;-60
2022/05/29 05:41:17;;;;;;;;;;;;;;;32.07;24.11;100582.09;2083501;28;1037;-60
2022/05/29 05:42:17;;;;;;;;;;;;;;;32.11;23.86;100590.91;2074723;28;832;-60
2022/05/29 05:43:19;;;;;;;;;;;;;;;32.25;23.96;100584.25;2074780;28;804;-60